Terminal Aerodrome Forecast
Issued by NWS Pittsburgh, PA

Home | Current Version | Previous Version | Text Only | Print | Product List | Glossary On
Versions: 1 2 3 4 5 6 7 8 9 10 11 12 13 14 15 16 17 18 19 20 21 22 23 24 25 26 27 28
000
FTUS41 KPBZ 110859 AAB
TAFPIT
TAF AMD
KPIT 110859Z 1109/1212 17003KT 1SM -SN OVC015
     FM111200 13006KT 3SM -SN OVC025
     FM111800 15006KT 5SM -SN OVC035
     FM120100 14007KT P6SM -RASN OVC035
     FM120700 19008KT 5SM -RASN OVC015=

USA.gov is the U.S. government's official web portal to all federal, state and local government web resources and services.